createdAt,value
2019-05-06T00:01:48.720Z,8.83
2019-05-06T00:04:18.742Z,8.55
2019-05-06T00:06:48.768Z,9.13
2019-05-06T00:09:18.755Z,9.08
2019-05-06T00:11:48.772Z,8.57
2019-05-06T00:14:18.762Z,7.77
2019-05-06T00:16:48.775Z,8.47
2019-05-06T00:19:18.767Z,9.23
2019-05-06T00:21:48.790Z,10.10
2019-05-06T00:24:18.799Z,11.12
2019-05-06T00:26:57.501Z,11.68
2019-05-06T00:29:29.243Z,11.60
2019-05-06T00:31:59.404Z,12.00
2019-05-06T00:34:29.511Z,13.13
2019-05-06T00:36:59.541Z,11.45
2019-05-06T00:39:51.420Z,12.05
2019-05-06T00:42:34.400Z,12.25
2019-05-06T00:45:04.407Z,11.18
2019-05-06T00:47:34.775Z,11.65
2019-05-06T00:50:05.564Z,11.20
2019-05-06T00:52:36.624Z,11.68
2019-05-06T00:55:06.639Z,11.10
2019-05-06T00:57:45.906Z,11.20
2019-05-06T01:00:21.360Z,11.47
2019-05-06T01:02:51.476Z,10.70
2019-05-06T01:05:21.570Z,10.70
2019-05-06T01:07:51.656Z,10.47
2019-05-06T01:10:23.708Z,10.73
2019-05-06T01:13:18.129Z,9.65
2019-05-06T01:15:48.206Z,9.50
2019-05-06T01:18:18.242Z,9.73
2019-05-06T01:20:48.242Z,9.38
2019-05-06T01:23:18.264Z,9.43
2019-05-06T01:25:48.239Z,9.87
2019-05-06T01:28:18.242Z,9.23
2019-05-06T01:30:48.227Z,8.97
2019-05-06T01:33:18.241Z,8.73
2019-05-06T01:35:48.246Z,8.73
2019-05-06T01:38:29.766Z,8.55
2019-05-06T01:41:33.998Z,7.73
2019-05-06T01:44:04.326Z,7.77
2019-05-06T01:46:34.547Z,8.37
2019-05-06T01:49:04.650Z,8.27
2019-05-06T01:51:34.974Z,7.77
2019-05-06T01:54:05.147Z,8.60
2019-05-06T01:56:35.127Z,8.23
2019-05-06T01:59:05.145Z,9.03
2019-05-06T02:01:35.233Z,8.80
2019-05-06T02:04:05.340Z,8.17
2019-05-06T02:06:35.411Z,8.33
2019-05-06T02:09:13.983Z,9.90
2019-05-06T02:11:45.160Z,8.73
2019-05-06T02:14:15.950Z,9.67
2019-05-06T08:23:02.141Z,4.13
2019-05-06T09:39:06.811Z,3.73
2019-05-06T09:41:37.018Z,7.80
2019-05-06T09:44:07.893Z,5.10
2019-05-06T09:46:38.153Z,4.30
2019-05-06T09:49:23.676Z,3.95
2019-05-06T09:51:53.706Z,3.80
2019-05-06T09:54:39.487Z,4.33
2019-05-06T09:57:13.787Z,8.00
2019-05-06T09:59:43.887Z,3.05
2019-05-06T10:02:14.076Z,2.90
2019-05-06T10:04:44.163Z,2.80
2019-05-06T10:07:14.259Z,3.42
2019-05-06T10:09:44.373Z,3.60
2019-05-06T10:12:14.444Z,2.67
2019-05-06T10:14:44.538Z,2.40
2019-05-06T10:17:14.639Z,3.25
2019-05-06T10:19:44.835Z,11.05
2019-05-06T10:22:14.845Z,2.92
2019-05-06T10:24:44.903Z,7.28
2019-05-06T10:27:14.934Z,4.70
2019-05-06T10:29:57.307Z,3.25
2019-05-06T10:32:46.271Z,2.80
2019-05-06T10:35:17.668Z,2.20
2019-05-06T10:38:13.172Z,2.95
2019-05-06T10:41:00.142Z,2.72
2019-05-06T10:43:28.100Z,2.95
2019-05-06T10:46:00.997Z,2.52
2019-05-06T10:48:29.882Z,4.28
2019-05-06T10:51:06.318Z,3.58
2019-05-06T10:53:36.323Z,3.02
2019-05-06T10:56:25.355Z,2.67
2019-05-06T10:58:55.887Z,4.40
2019-05-06T11:01:33.094Z,3.27
2019-05-06T11:04:02.998Z,3.70
2019-05-06T11:06:33.732Z,2.73
2019-05-06T11:09:05.920Z,4.10
2019-05-06T11:11:38.679Z,2.80
2019-05-06T11:14:08.156Z,3.00
2019-05-06T11:16:38.323Z,3.15
2019-05-06T11:19:08.529Z,5.42
2019-05-06T11:21:38.656Z,3.30
2019-05-06T11:24:08.791Z,3.35
2019-05-06T11:26:38.888Z,4.50
2019-05-06T11:29:14.371Z,3.90
2019-05-06T11:32:02.218Z,3.08
2019-05-06T11:34:56.664Z,3.27
2019-05-06T11:37:58.087Z,7.22
2019-05-06T11:40:28.207Z,4.05
2019-05-06T11:42:58.329Z,2.95
2019-05-06T11:45:28.494Z,2.20
2019-05-06T11:47:58.601Z,3.27
2019-05-06T11:50:28.756Z,2.65
2019-05-06T11:52:58.953Z,2.60
2019-05-06T11:55:36.174Z,2.45
2019-05-06T11:58:02.581Z,2.92
2019-05-06T12:00:37.959Z,2.35
2019-05-06T12:03:08.091Z,3.37
2019-05-06T12:05:38.188Z,3.00
2019-05-06T12:08:08.567Z,3.10
2019-05-06T12:10:38.708Z,3.12
2019-05-06T12:13:08.767Z,3.55
2019-05-06T12:15:38.847Z,3.75
2019-05-06T12:18:08.997Z,2.98
2019-05-06T12:20:39.082Z,4.50
2019-05-06T12:23:09.204Z,4.27
2019-05-06T12:25:39.324Z,2.98
2019-05-06T12:28:09.429Z,8.83
2019-05-06T12:30:42.326Z,3.03
2019-05-06T12:33:37.373Z,2.50
2019-05-06T12:36:15.330Z,2.95
2019-05-06T12:39:06.546Z,4.65
2019-05-06T12:41:38.659Z,5.25
2019-05-06T12:44:08.741Z,22.30
2019-05-06T12:46:43.950Z,5.53
2019-05-06T12:49:14.115Z,7.45
2019-05-06T12:51:44.266Z,3.55
2019-05-06T12:54:14.420Z,4.22
2019-05-06T12:56:44.630Z,3.40
2019-05-06T12:59:15.941Z,6.80
2019-05-06T13:01:46.122Z,7.10
2019-05-06T13:04:17.392Z,4.23
2019-05-06T13:06:47.532Z,6.23
2019-05-06T13:09:17.732Z,11.48
2019-05-06T13:11:47.807Z,14.87
2019-05-06T13:14:19.057Z,3.55
2019-05-06T13:16:49.240Z,4.10
2019-05-06T13:19:19.356Z,7.78
2019-05-06T13:21:49.504Z,3.02
2019-05-06T13:24:19.637Z,2.02
2019-05-06T13:26:49.807Z,2.00
2019-05-06T13:29:24.323Z,2.05
2019-05-06T13:31:54.496Z,2.45
2019-05-06T13:34:24.719Z,2.15
2019-05-06T13:36:54.902Z,2.05
2019-05-06T13:39:25.021Z,2.33
2019-05-06T13:41:55.139Z,2.08
2019-05-06T13:44:25.284Z,2.02
2019-05-06T13:46:55.772Z,2.17
2019-05-06T13:49:52.245Z,2.40
2019-05-06T13:52:25.853Z,2.27
2019-05-06T13:54:55.980Z,2.20
2019-05-06T13:57:28.941Z,2.50
2019-05-06T13:59:57.927Z,2.60
2019-05-06T14:02:56.179Z,2.20
2019-05-06T14:05:26.423Z,1.90
2019-05-06T14:07:56.583Z,2.55
2019-05-06T14:10:26.662Z,2.20
2019-05-06T14:12:56.866Z,2.50
2019-05-06T14:15:27.008Z,2.50
2019-05-06T14:17:57.179Z,2.30
2019-05-06T14:20:27.340Z,2.63
2019-05-06T14:22:57.506Z,2.67
2019-05-06T14:25:46.528Z,2.40
2019-05-06T14:28:32.496Z,2.73
2019-05-06T14:31:06.482Z,2.50
2019-05-06T14:33:36.567Z,2.75
2019-05-06T14:36:06.702Z,2.60
2019-05-06T14:38:36.766Z,2.62
2019-05-06T14:41:13.290Z,2.92
2019-05-06T14:43:43.550Z,2.80
2019-05-06T14:46:13.647Z,2.35
2019-05-06T14:48:43.820Z,2.58
2019-05-06T14:51:14.290Z,3.05
2019-05-06T14:53:44.428Z,3.12
2019-05-06T14:56:22.858Z,2.70
2019-05-06T14:59:09.466Z,2.60
2019-05-06T15:01:45.085Z,2.80
2019-05-06T15:04:12.657Z,3.45
2019-05-06T15:06:42.870Z,3.10
2019-05-06T15:09:13.484Z,2.70
2019-05-06T15:11:43.869Z,2.87
2019-05-06T15:14:13.971Z,2.87
2019-05-06T15:16:44.084Z,2.67
2019-05-06T15:19:14.481Z,2.60
2019-05-06T15:21:44.635Z,2.80
2019-05-06T15:24:14.815Z,2.90
2019-05-06T15:26:45.064Z,3.40
2019-05-06T15:29:15.283Z,3.25
2019-05-06T15:32:22.487Z,3.20
2019-05-06T15:35:02.534Z,3.33
2019-05-06T15:37:42.612Z,3.12
2019-05-06T15:40:14.741Z,3.65
2019-05-06T15:42:44.887Z,3.20
2019-05-06T15:45:15.003Z,2.98
2019-05-06T15:47:45.579Z,3.47
2019-05-06T15:50:15.712Z,3.67
2019-05-06T15:52:45.875Z,3.77
2019-05-06T15:55:16.019Z,3.55
2019-05-06T15:57:47.236Z,3.50
2019-05-06T16:00:18.891Z,3.50
2019-05-06T16:02:49.046Z,3.25
2019-05-06T16:05:20.876Z,3.42
2019-05-06T16:07:52.884Z,3.30
2019-05-06T16:10:22.877Z,3.70
2019-05-06T16:12:53.538Z,3.95
2019-05-06T16:15:24.851Z,3.60
2019-05-06T16:17:55.268Z,3.67
2019-05-06T16:20:25.290Z,4.62
2019-05-06T16:23:03.502Z,4.50
2019-05-06T16:25:33.687Z,4.30
2019-05-06T16:28:03.788Z,4.42
2019-05-06T16:30:34.041Z,4.22
2019-05-06T16:33:04.272Z,4.70
2019-05-06T16:35:34.426Z,6.07
2019-05-06T16:38:04.516Z,4.92
2019-05-06T16:40:34.595Z,4.90
2019-05-06T16:43:04.733Z,4.60
2019-05-06T16:45:34.904Z,4.62
2019-05-06T16:48:05.053Z,5.28
2019-05-06T16:50:35.166Z,4.53
2019-05-06T16:53:06.434Z,4.78
2019-05-06T16:55:55.555Z,4.50
2019-05-06T16:58:34.863Z,4.90
2019-05-06T17:01:06.090Z,4.70
2019-05-06T17:04:02.992Z,5.45
2019-05-06T17:06:35.440Z,5.30
2019-05-06T17:09:18.369Z,5.40
2019-05-06T17:11:39.952Z,5.30
2019-05-06T17:14:12.302Z,5.17
2019-05-06T17:16:43.270Z,5.53
2019-05-06T17:19:13.421Z,5.40
2019-05-06T17:21:44.590Z,5.30
2019-05-06T17:24:14.648Z,5.97
2019-05-06T17:26:44.765Z,5.80
2019-05-06T17:29:22.712Z,5.73
2019-05-06T17:32:15.076Z,6.53
2019-05-06T17:34:48.533Z,5.73
2019-05-06T17:37:37.113Z,6.07
2019-05-06T17:40:11.761Z,5.97
2019-05-06T17:42:42.095Z,6.23
2019-05-06T17:45:29.575Z,6.10
2019-05-06T17:48:06.201Z,6.03
2019-05-06T17:50:36.342Z,6.07
2019-05-06T17:53:06.540Z,5.60
2019-05-06T17:55:36.599Z,5.83
2019-05-06T17:58:06.779Z,5.53
2019-05-06T18:00:36.907Z,5.50
2019-05-06T18:03:06.925Z,5.93
2019-05-06T18:05:37.700Z,5.50
2019-05-06T18:08:07.690Z,5.70
2019-05-06T18:10:37.872Z,5.00
2019-05-06T18:13:08.942Z,5.40
2019-05-06T18:15:39.022Z,5.20
2019-05-06T18:18:09.048Z,5.73
2019-05-06T18:20:39.117Z,5.73
2019-05-06T18:23:09.179Z,5.20
2019-05-06T18:25:39.193Z,5.80
2019-05-06T18:28:09.195Z,5.40
2019-05-06T18:30:40.396Z,5.53
2019-05-06T18:33:10.430Z,5.53
2019-05-06T18:35:42.010Z,6.67
2019-05-06T18:38:12.222Z,7.07
2019-05-06T18:40:42.473Z,7.43
2019-05-06T18:43:12.845Z,7.60
2019-05-06T18:45:43.302Z,7.13
2019-05-06T18:48:13.320Z,6.63
2019-05-06T18:50:43.412Z,6.97
2019-05-06T18:53:13.475Z,6.57
2019-05-06T18:55:43.554Z,7.33
2019-05-06T18:58:13.547Z,7.93
2019-05-06T19:00:44.092Z,8.00
2019-05-06T19:03:14.237Z,7.60
2019-05-06T19:05:44.391Z,7.00
2019-05-06T19:08:32.841Z,7.37
2019-05-06T19:11:02.731Z,6.80
2019-05-06T19:13:33.501Z,7.13
2019-05-06T19:16:03.823Z,8.23
2019-05-06T19:18:33.917Z,6.80
2019-05-06T19:21:03.999Z,7.47
2019-05-06T19:23:34.008Z,7.55
2019-05-06T19:26:04.106Z,8.98
2019-05-06T19:28:34.095Z,8.13
2019-05-06T19:31:04.102Z,8.65
2019-05-06T19:33:34.826Z,8.65
2019-05-06T19:36:05.090Z,7.87
2019-05-06T19:38:35.220Z,8.28
2019-05-06T19:41:05.950Z,9.75
2019-05-06T19:43:36.163Z,7.55
2019-05-06T19:46:06.186Z,7.25
2019-05-06T19:48:37.336Z,7.50
2019-05-06T19:51:07.818Z,8.05
2019-05-06T19:53:37.863Z,6.80
2019-05-06T19:56:07.871Z,7.03
2019-05-06T19:58:37.894Z,7.40
2019-05-06T20:01:07.898Z,7.50
2019-05-06T20:03:37.879Z,8.10
2019-05-06T20:06:29.637Z,10.43
2019-05-06T20:09:17.336Z,10.60
2019-05-06T20:11:47.979Z,8.30
2019-05-06T20:14:17.967Z,7.80
2019-05-06T20:16:47.975Z,7.50
2019-05-06T20:19:28.142Z,7.12
2019-05-06T20:21:49.671Z,7.75
2019-05-06T20:24:22.462Z,7.80
2019-05-06T20:26:52.835Z,7.22
2019-05-06T20:29:23.074Z,7.47
2019-05-06T20:31:53.609Z,6.80
2019-05-06T20:34:23.959Z,7.45
2019-05-06T20:36:54.269Z,7.40
2019-05-06T20:39:24.355Z,7.97
2019-05-06T20:41:54.377Z,8.30
2019-05-06T20:44:24.371Z,8.27
2019-05-06T20:46:54.493Z,8.73
2019-05-06T20:49:24.626Z,8.25
2019-05-06T20:51:54.643Z,7.65
2019-05-06T20:54:24.652Z,7.78
2019-05-06T20:56:54.678Z,11.38
2019-05-06T20:59:24.678Z,10.50
2019-05-06T21:01:55.403Z,10.90
2019-05-06T21:04:25.582Z,9.53
2019-05-06T21:06:55.619Z,10.23
2019-05-06T21:09:25.709Z,9.55
2019-05-06T21:11:55.807Z,9.60
2019-05-06T21:14:25.850Z,8.28
2019-05-06T21:16:55.953Z,7.95
2019-05-06T21:19:26.028Z,8.33
2019-05-06T21:21:56.123Z,9.00
2019-05-06T21:24:26.197Z,9.38
2019-05-06T21:26:56.230Z,8.05
2019-05-06T21:29:26.386Z,8.70
2019-05-06T21:31:56.576Z,7.30
2019-05-06T21:34:27.932Z,7.60
2019-05-06T21:36:58.362Z,7.50
2019-05-06T21:39:28.367Z,7.40
2019-05-06T21:41:58.451Z,8.23
2019-05-06T21:44:28.562Z,8.00
2019-05-06T21:46:58.654Z,8.20
2019-05-06T21:49:28.751Z,8.85
2019-05-06T21:51:58.851Z,7.65
2019-05-06T21:54:28.862Z,7.40
2019-05-06T21:56:58.963Z,7.62
2019-05-06T21:59:28.979Z,7.70
2019-05-06T22:01:59.187Z,7.75
2019-05-06T22:04:29.258Z,7.97
2019-05-06T22:06:59.326Z,7.80
2019-05-06T22:09:29.316Z,8.13
2019-05-06T22:11:59.836Z,7.78
2019-05-06T22:14:29.879Z,8.33
2019-05-06T22:17:03.924Z,7.35
2019-05-06T22:19:32.652Z,7.53
2019-05-06T22:22:04.990Z,7.72
2019-05-06T22:24:55.168Z,8.13
2019-05-06T22:27:22.720Z,7.92
2019-05-06T22:29:52.810Z,7.80
2019-05-06T22:32:23.295Z,7.50
2019-05-06T22:34:53.407Z,7.97
2019-05-06T22:37:23.415Z,7.85
2019-05-06T22:39:53.406Z,8.20
2019-05-06T22:42:24.962Z,7.53
2019-05-06T22:44:55.210Z,7.70
2019-05-06T22:47:25.222Z,7.80
2019-05-06T22:49:55.295Z,7.77
2019-05-06T22:52:25.315Z,7.80
2019-05-06T22:54:55.307Z,7.63
2019-05-06T22:57:25.319Z,8.00
2019-05-06T22:59:55.307Z,7.97
2019-05-06T23:02:37.662Z,7.73
2019-05-06T23:05:08.830Z,8.70
2019-05-06T23:07:39.122Z,7.92
2019-05-06T23:10:28.375Z,7.62
2019-05-06T23:12:58.686Z,8.30
2019-05-06T23:15:28.751Z,9.00
2019-05-06T23:17:58.824Z,9.20
2019-05-06T23:20:28.931Z,8.55
2019-05-06T23:22:59.084Z,8.13
2019-05-06T23:25:29.224Z,8.73
2019-05-06T23:27:59.728Z,8.40
2019-05-06T23:30:29.928Z,8.20
2019-05-06T23:33:00.051Z,7.80
2019-05-06T23:35:30.144Z,8.13
2019-05-06T23:38:36.687Z,8.50
2019-05-06T23:41:42.947Z,8.45
2019-05-06T23:44:49.379Z,8.25
2019-05-06T23:47:55.499Z,7.37
2019-05-06T23:51:01.756Z,7.95
2019-05-06T23:54:07.705Z,8.88
2019-05-06T23:56:42.891Z,7.70
2019-05-06T23:59:12.653Z,8.15
